Time;durP1;ratioP1;P1;durP2;ratioP2;P2;SDS_P1;SDS_P2;PMS_P1;PMS_P2;Temp;Humidity;BMP_temperature;BMP_pressure;BME280_temperature;BME280_humidity;BME280_pressure;Samples;Min_cycle;Max_cycle;Signal;HPM_P1;HPM_P2
2022/07/01 00:02:51;;;;;;;0.40;0.40;;;;;;;;;;8323944;28;20580;-61
2022/07/01 00:06:51;;;;;;;0.75;0.50;;;;;;;;;;8324123;28;20013;-60
2022/07/01 00:10:51;;;;;;;1.67;0.52;;;;;;;;;;8321683;28;20021;-60
2022/07/01 00:14:51;;;;;;;0.60;0.50;;;;;;;;;;8327773;28;20568;-61
2022/07/01 00:18:52;;;;;;;1.73;0.50;;;;;;;;;;8324068;28;20646;-60
2022/07/01 00:22:52;;;;;;;1.08;0.40;;;;;;;;;;8325330;28;20581;-61
2022/07/01 00:26:52;;;;;;;1.52;0.50;;;;;;;;;;8324761;28;20071;-60
2022/07/01 00:30:53;;;;;;;1.75;0.60;;;;;;;;;;8322191;28;20135;-60
2022/07/01 00:34:53;;;;;;;0.47;0.40;;;;;;;;;;8321103;28;20039;-60
2022/07/01 00:38:53;;;;;;;0.50;0.50;;;;;;;;;;8321868;28;20429;-61
2022/07/01 00:42:53;;;;;;;0.90;0.40;;;;;;;;;;8323808;28;20879;-60
2022/07/01 00:46:54;;;;;;;0.50;0.50;;;;;;;;;;8319806;28;20648;-60
2022/07/01 00:50:54;;;;;;;0.55;0.55;;;;;;;;;;8323080;28;20016;-60
2022/07/01 00:54:54;;;;;;;0.50;0.50;;;;;;;;;;8321974;28;20041;-61
2022/07/01 00:58:55;;;;;;;1.38;0.60;;;;;;;;;;8329727;28;20094;-61
2022/07/01 01:02:55;;;;;;;0.52;0.50;;;;;;;;;;8321016;28;20517;-61
2022/07/01 01:06:56;;;;;;;0.50;0.50;;;;;;;;;;8324635;28;20014;-61
2022/07/01 01:10:56;;;;;;;0.68;0.68;;;;;;;;;;8322572;28;20138;-61
2022/07/01 01:14:57;;;;;;;1.13;0.50;;;;;;;;;;8320932;28;20318;-61
2022/07/01 01:18:57;;;;;;;2.92;0.60;;;;;;;;;;8321049;28;20060;-60
2022/07/01 01:22:57;;;;;;;0.80;0.50;;;;;;;;;;8320996;28;20029;-60
2022/07/01 01:26:57;;;;;;;4.22;0.60;;;;;;;;;;8324823;28;20016;-60
2022/07/01 01:30:58;;;;;;;0.55;0.55;;;;;;;;;;8325689;28;20052;-61
2022/07/01 01:34:58;;;;;;;0.70;0.70;;;;;;;;;;8322191;28;20748;-60
2022/07/01 01:39:08;;;;;;;0.55;0.55;;;;;;;;;;8323200;28;20287;-60
2022/07/01 01:43:08;;;;;;;1.65;0.70;;;;;;;;;;8325501;28;20040;-60
2022/07/01 01:47:08;;;;;;;2.47;0.80;;;;;;;;;;8323658;28;20033;-60
2022/07/01 01:51:08;;;;;;;3.25;0.80;;;;;;;;;;8322331;28;20027;-60
2022/07/01 01:55:09;;;;;;;0.85;0.85;;;;;;;;;;8322438;28;20044;-61
2022/07/01 01:59:09;;;;;;;1.58;0.90;;;;;;;;;;8327228;28;20028;-60
2022/07/01 02:03:09;;;;;;;0.77;0.77;;;;;;;;;;8324979;28;20047;-60
2022/07/01 02:07:10;;;;;;;0.90;0.90;;;;;;;;;;8325864;28;20307;-60
2022/07/01 02:11:10;;;;;;;1.05;0.80;;;;;;;;;;8323589;28;20025;-61
2022/07/01 02:15:11;;;;;;;2.42;0.95;;;;;;;;;;8327539;28;20029;-60
2022/07/01 02:19:11;;;;;;;2.88;1.10;;;;;;;;;;8328828;28;20256;-60
2022/07/01 02:23:11;;;;;;;0.90;0.90;;;;;;;;;;8329773;28;20699;-60
2022/07/01 02:27:12;;;;;;;0.95;0.80;;;;;;;;;;8331468;28;20024;-60
2022/07/01 02:31:12;;;;;;;1.17;1.08;;;;;;;;;;8326776;28;20028;-60
2022/07/01 02:35:13;;;;;;;1.67;0.90;;;;;;;;;;8328078;28;20378;-60
2022/07/01 02:39:13;;;;;;;1.42;0.90;;;;;;;;;;8325992;28;20025;-61
2022/07/01 02:43:15;;;;;;;1.33;0.82;;;;;;;;;;8329894;28;20035;-61
2022/07/01 02:47:16;;;;;;;1.23;0.75;;;;;;;;;;8330392;28;20402;-61
2022/07/01 02:51:16;;;;;;;1.05;0.88;;;;;;;;;;8325778;28;20017;-61
2022/07/01 02:55:16;;;;;;;1.58;0.90;;;;;;;;;;8327204;28;20025;-60
2022/07/01 02:59:16;;;;;;;0.90;0.90;;;;;;;;;;8329259;28;20482;-59
2022/07/01 03:03:16;;;;;;;2.53;1.00;;;;;;;;;;8327580;28;20392;-60
2022/07/01 03:07:17;;;;;;;1.02;0.93;;;;;;;;;;8329083;28;20028;-60
2022/07/01 03:11:17;;;;;;;1.50;0.80;;;;;;;;;;8326807;28;20024;-59
2022/07/01 03:15:17;;;;;;;0.80;0.80;;;;;;;;;;8329496;28;20032;-59
2022/07/01 03:19:18;;;;;;;1.00;0.90;;;;;;;;;;8323837;28;20025;-60
2022/07/01 03:23:18;;;;;;;1.45;0.80;;;;;;;;;;8329833;28;20078;-60
2022/07/01 03:27:19;;;;;;;6.10;1.00;;;;;;;;;;8326038;28;20100;-60
2022/07/01 03:31:19;;;;;;;3.63;0.90;;;;;;;;;;8326754;28;20067;-60
2022/07/01 03:35:52;;;;;;;1.63;0.80;;;;;;;;;;8328323;28;20050;-59
2022/07/01 03:39:46;;;;;;;1.05;0.75;;;;;;;;;;8322043;28;20051;-60
2022/07/01 03:43:46;;;;;;;0.75;0.75;;;;;;;;;;8324665;28;20031;-59
2022/07/01 03:47:48;;;;;;;1.80;1.07;;;;;;;;;;8323774;28;20059;-59
2022/07/01 03:51:49;;;;;;;1.08;0.82;;;;;;;;;;8324659;28;20057;-59
2022/07/01 03:55:49;;;;;;;2.35;1.00;;;;;;;;;;8326775;28;20595;-61
2022/07/01 03:59:49;;;;;;;0.90;0.90;;;;;;;;;;8323246;28;20824;-59
2022/07/01 04:03:49;;;;;;;0.90;0.90;;;;;;;;;;8324323;28;20045;-59
2022/07/01 04:07:49;;;;;;;3.28;1.00;;;;;;;;;;8337309;28;20047;-59
2022/07/01 04:11:50;;;;;;;3.85;1.02;;;;;;;;;;8320854;28;20021;-60
2022/07/01 04:15:51;;;;;;;1.70;1.00;;;;;;;;;;8322316;28;20313;-58
2022/07/01 04:19:51;;;;;;;0.93;0.80;;;;;;;;;;8323724;28;20020;-59
2022/07/01 04:23:51;;;;;;;1.80;1.00;;;;;;;;;;8327462;28;20123;-58
2022/07/01 04:27:51;;;;;;;1.23;0.90;;;;;;;;;;8323569;28;20127;-58
2022/07/01 04:31:52;;;;;;;0.93;0.80;;;;;;;;;;8322875;28;20037;-59
2022/07/01 04:35:52;;;;;;;4.03;1.20;;;;;;;;;;8326647;28;20102;-59
2022/07/01 04:39:52;;;;;;;3.58;0.90;;;;;;;;;;8326335;28;20341;-60
2022/07/01 04:43:52;;;;;;;2.20;1.20;;;;;;;;;;8322640;28;20037;-58
2022/07/01 04:47:52;;;;;;;1.17;1.00;;;;;;;;;;8321607;28;20223;-58
2022/07/01 04:51:53;;;;;;;5.28;1.20;;;;;;;;;;8324614;28;20079;-58
2022/07/01 04:55:53;;;;;;;1.52;1.25;;;;;;;;;;8322659;28;20028;-58
2022/07/01 04:59:53;;;;;;;4.07;1.25;;;;;;;;;;8328042;28;20443;-58
2022/07/01 05:03:54;;;;;;;1.60;1.20;;;;;;;;;;8319873;28;20045;-59
2022/07/01 05:07:54;;;;;;;6.32;1.30;;;;;;;;;;8325656;28;20032;-58
2022/07/01 05:11:54;;;;;;;2.08;1.55;;;;;;;;;;8323318;28;20033;-59
2022/07/01 05:15:55;;;;;;;2.13;1.65;;;;;;;;;;8324656;28;20131;-58
2022/07/01 05:24:14;;;;;;;4.63;2.58;;;;;;;;;;8323154;28;20359;-60
2022/07/01 05:28:14;;;;;;;8.50;2.58;;;;;;;;;;8325590;28;20108;-59
2022/07/01 05:32:15;;;;;;;8.15;2.47;;;;;;;;;;8322241;28;20041;-58
2022/07/01 05:36:16;;;;;;;4.30;1.80;;;;;;;;;;8322021;28;20045;-59
2022/07/01 05:40:16;;;;;;;4.20;1.95;;;;;;;;;;8324341;28;20021;-60
2022/07/01 05:44:16;;;;;;;1.97;1.40;;;;;;;;;;8323781;28;20172;-59
2022/07/01 05:48:16;;;;;;;2.38;1.63;;;;;;;;;;8328196;28;20047;-59
2022/07/01 05:52:17;;;;;;;2.13;1.25;;;;;;;;;;8331069;28;20580;-59
2022/07/01 05:56:17;;;;;;;3.90;1.70;;;;;;;;;;8329882;28;20515;-59
2022/07/01 06:00:17;;;;;;;2.00;1.50;;;;;;;;;;8328539;28;20806;-60
2022/07/01 06:04:17;;;;;;;2.00;1.67;;;;;;;;;;8333146;28;21298;-60
2022/07/01 06:08:18;;;;;;;2.30;1.50;;;;;;;;;;8328934;28;20023;-59
2022/07/01 06:12:18;;;;;;;2.50;1.35;;;;;;;;;;8330404;28;20617;-59
2022/07/01 06:16:18;;;;;;;4.15;1.20;;;;;;;;;;8330335;28;20478;-60
2022/07/01 06:20:18;;;;;;;1.73;1.10;;;;;;;;;;8330827;28;20033;-60
2022/07/01 06:24:19;;;;;;;1.63;1.27;;;;;;;;;;8333910;28;20630;-60
2022/07/01 06:28:20;;;;;;;1.70;1.17;;;;;;;;;;8332369;28;20021;-60
2022/07/01 06:32:20;;;;;;;4.00;1.73;;;;;;;;;;8327829;28;20036;-59
2022/07/01 06:36:20;;;;;;;1.67;1.10;;;;;;;;;;8328799;28;20581;-60
2022/07/01 06:40:20;;;;;;;4.17;1.10;;;;;;;;;;8318607;28;20029;-59
2022/07/01 06:44:21;;;;;;;5.83;1.23;;;;;;;;;;8323611;28;20024;-60
2022/07/01 06:48:21;;;;;;;4.03;1.50;;;;;;;;;;8319191;28;20033;-60
2022/07/01 06:52:21;;;;;;;2.30;1.20;;;;;;;;;;8321973;28;20175;-58
2022/07/01 06:56:21;;;;;;;1.58;1.08;;;;;;;;;;8320527;28;20035;-58
2022/07/01 07:00:22;;;;;;;3.13;1.20;;;;;;;;;;8327894;28;20048;-59
2022/07/01 07:04:22;;;;;;;4.70;1.02;;;;;;;;;;8328500;28;21193;-59
2022/07/01 07:08:22;;;;;;;2.87;1.23;;;;;;;;;;8329386;28;20071;-59
2022/07/01 07:12:22;;;;;;;4.68;0.93;;;;;;;;;;8329308;28;20028;-58
2022/07/01 07:16:23;;;;;;;4.37;1.07;;;;;;;;;;8327986;28;20037;-58
2022/07/01 07:20:24;;;;;;;2.95;1.20;;;;;;;;;;8328921;28;20101;-60
2022/07/01 07:24:24;;;;;;;2.30;1.25;;;;;;;;;;8325320;28;20028;-59
2022/07/01 07:28:24;;;;;;;4.10;1.20;;;;;;;;;;8324909;28;20753;-58
2022/07/01 07:32:24;;;;;;;2.85;1.50;;;;;;;;;;8318439;28;20040;-59
2022/07/01 07:36:24;;;;;;;3.70;1.30;;;;;;;;;;8319673;28;20029;-59
2022/07/01 07:40:25;;;;;;;4.18;1.27;;;;;;;;;;8316346;28;20572;-58
2022/07/01 07:44:25;;;;;;;2.13;1.25;;;;;;;;;;8322665;28;20029;-59
2022/07/01 07:48:25;;;;;;;3.17;1.13;;;;;;;;;;8326894;28;20092;-59
2022/07/01 07:52:25;;;;;;;2.58;1.08;;;;;;;;;;8320382;28;20434;-58
2022/07/01 07:56:26;;;;;;;2.70;0.95;;;;;;;;;;8320211;28;20029;-58
2022/07/01 08:00:28;;;;;;;2.17;0.90;;;;;;;;;;8323357;28;20056;-58
2022/07/01 08:04:28;;;;;;;2.15;1.00;;;;;;;;;;8321840;28;20048;-58
2022/07/01 08:08:28;;;;;;;3.15;1.10;;;;;;;;;;8317519;28;20453;-60
2022/07/01 08:12:28;;;;;;;2.47;1.02;;;;;;;;;;8326177;28;20377;-60
2022/07/01 08:16:29;;;;;;;0.90;0.80;;;;;;;;;;8319762;28;20099;-59
2022/07/01 08:20:29;;;;;;;1.13;0.80;;;;;;;;;;8319319;28;20032;-67
2022/07/01 08:24:29;;;;;;;2.83;0.80;;;;;;;;;;8319171;28;20104;-58
2022/07/01 08:28:30;;;;;;;2.78;0.80;;;;;;;;;;8320778;28;20135;-59
2022/07/01 08:32:30;;;;;;;1.48;0.90;;;;;;;;;;8315489;28;20029;-58
2022/07/01 08:36:30;;;;;;;1.83;1.05;;;;;;;;;;8318633;28;20628;-58
2022/07/01 08:40:31;;;;;;;4.03;1.00;;;;;;;;;;8320091;28;20032;-59
2022/07/01 08:44:31;;;;;;;1.63;1.00;;;;;;;;;;8317436;28;20066;-58
2022/07/01 08:48:32;;;;;;;2.65;0.80;;;;;;;;;;8319077;28;20037;-59
2022/07/01 08:52:32;;;;;;;3.13;0.85;;;;;;;;;;8320740;28;20906;-59
2022/07/01 08:56:41;;;;;;;4.00;0.95;;;;;;;;;;8314746;28;20121;-59
2022/07/01 09:00:41;;;;;;;5.47;1.10;;;;;;;;;;8318770;28;20071;-60
2022/07/01 09:04:41;;;;;;;1.48;0.80;;;;;;;;;;8315935;28;20076;-59
2022/07/01 09:08:42;;;;;;;1.85;0.82;;;;;;;;;;8317585;28;20473;-59
2022/07/01 09:12:42;;;;;;;3.60;0.68;;;;;;;;;;8320387;28;20139;-59
2022/07/01 09:16:45;;;;;;;3.60;0.93;;;;;;;;;;8314590;28;20080;-59
2022/07/01 09:20:47;;;;;;;2.63;0.85;;;;;;;;;;8318305;28;20326;-59
2022/07/01 09:24:48;;;;;;;2.17;0.90;;;;;;;;;;8316976;28;20234;-60
2022/07/01 09:28:55;;;;;;;1.70;0.70;;;;;;;;;;8320723;28;20053;-59
2022/07/01 09:33:05;;;;;;;1.90;0.75;;;;;;;;;;8317398;28;20045;-60
2022/07/01 09:37:05;;;;;;;2.30;0.88;;;;;;;;;;8317580;28;20143;-60
2022/07/01 09:41:11;;;;;;;1.80;0.90;;;;;;;;;;8314136;28;20183;-59
2022/07/01 09:45:11;;;;;;;1.17;0.68;;;;;;;;;;8322383;28;20024;-61
2022/07/01 09:49:11;;;;;;;3.67;1.00;;;;;;;;;;8323497;28;20342;-61
2022/07/01 09:53:12;;;;;;;2.83;1.00;;;;;;;;;;8322642;28;20018;-59
2022/07/01 09:57:13;;;;;;;3.17;1.10;;;;;;;;;;8322259;28;20908;-59
2022/07/01 10:01:14;;;;;;;1.17;0.82;;;;;;;;;;8322125;28;20647;-60
2022/07/01 10:05:17;;;;;;;1.20;0.75;;;;;;;;;;8320709;28;20846;-59
2022/07/01 10:09:35;;;;;;;2.78;0.80;;;;;;;;;;8325418;28;20111;-61
2022/07/01 10:13:36;;;;;;;1.05;0.60;;;;;;;;;;8321472;28;20495;-59
2022/07/01 10:17:40;;;;;;;2.30;0.70;;;;;;;;;;8320446;28;20040;-59
2022/07/01 10:21:40;;;;;;;3.33;0.75;;;;;;;;;;8323799;28;20029;-60
2022/07/01 10:25:41;;;;;;;1.30;0.80;;;;;;;;;;8323394;28;20033;-59
2022/07/01 10:29:41;;;;;;;1.23;0.85;;;;;;;;;;8326020;28;20021;-59
2022/07/01 10:33:44;;;;;;;1.30;0.80;;;;;;;;;;8324706;28;20033;-59
2022/07/01 10:37:44;;;;;;;;;;;;;;;;;;8332548;28;20028;-60
2022/07/01 10:41:53;;;;;;;1.60;0.60;;;;;;;;;;8330255;28;19912;-60
2022/07/01 10:45:54;;;;;;;2.45;0.73;;;;;;;;;;8324853;28;20045;-60
2022/07/01 10:49:58;;;;;;;1.07;0.70;;;;;;;;;;8333342;28;20024;-60
2022/07/01 10:53:58;;;;;;;2.05;0.70;;;;;;;;;;8325532;28;20465;-59
2022/07/01 10:57:58;;;;;;;1.13;0.70;;;;;;;;;;8322429;28;20021;-60
2022/07/01 11:01:59;;;;;;;1.00;0.70;;;;;;;;;;8322657;28;20513;-57
2022/07/01 11:05:59;;;;;;;1.25;0.70;;;;;;;;;;8321568;28;20032;-57
2022/07/01 11:10:00;;;;;;;1.15;0.65;;;;;;;;;;8320117;28;20411;-58
2022/07/01 11:14:00;;;;;;;1.10;0.60;;;;;;;;;;8329394;28;20025;-58
2022/07/01 11:18:01;;;;;;;2.20;0.60;;;;;;;;;;8319549;28;20038;-58
2022/07/01 11:22:02;;;;;;;4.43;0.70;;;;;;;;;;8330137;28;20029;-59
2022/07/01 11:26:02;;;;;;;1.67;0.65;;;;;;;;;;8330041;28;20021;-60
2022/07/01 11:30:08;;;;;;;1.98;0.60;;;;;;;;;;8327768;28;20032;-63
2022/07/01 11:34:09;;;;;;;0.82;0.70;;;;;;;;;;8329758;28;20059;-61
2022/07/01 11:42:30;;;;;;;2.47;0.63;;;;;;;;;;8328611;28;20031;-59
2022/07/01 11:46:30;;;;;;;0.88;0.50;;;;;;;;;;8324757;28;20715;-58
2022/07/01 11:50:32;;;;;;;0.85;0.55;;;;;;;;;;8323540;28;20606;-59
2022/07/01 11:54:38;;;;;;;0.93;0.67;;;;;;;;;;8322936;28;20437;-59
2022/07/01 11:58:42;;;;;;;4.22;0.70;;;;;;;;;;8326855;28;20697;-59
2022/07/01 12:02:43;;;;;;;1.63;0.70;;;;;;;;;;8325942;28;20569;-59
2022/07/01 12:06:43;;;;;;;1.25;0.50;;;;;;;;;;8321509;28;20039;-59
2022/07/01 12:10:43;;;;;;;0.85;0.73;;;;;;;;;;8328252;28;20023;-58
2022/07/01 12:14:57;;;;;;;1.20;0.65;;;;;;;;;;8312168;28;20036;-61
2022/07/01 12:19:01;;;;;;;1.50;0.70;;;;;;;;;;8320343;28;20783;-60
2022/07/01 12:23:11;;;;;;;0.85;0.75;;;;;;;;;;8320822;28;20021;-60
2022/07/01 12:27:12;;;;;;;0.60;0.60;;;;;;;;;;8311333;28;20029;-60
2022/07/01 12:31:12;;;;;;;1.30;0.70;;;;;;;;;;8321839;28;20039;-60
2022/07/01 12:39:31;;;;;;;3.97;0.68;;;;;;;;;;8321979;28;20023;-60
2022/07/01 12:43:37;;;;;;;0.95;0.63;;;;;;;;;;8320174;28;20016;-59
2022/07/01 12:47:48;;;;;;;2.47;0.65;;;;;;;;;;8321649;28;20754;-59
2022/07/01 12:51:48;;;;;;;0.98;0.70;;;;;;;;;;8319807;28;20024;-60
2022/07/01 12:55:52;;;;;;;0.80;0.60;;;;;;;;;;8322701;28;20075;-60
2022/07/01 12:59:53;;;;;;;1.25;0.70;;;;;;;;;;8322072;28;20767;-60
2022/07/01 13:03:53;;;;;;;0.68;0.68;;;;;;;;;;8319614;28;20045;-59
2022/07/01 13:07:53;;;;;;;2.83;0.70;;;;;;;;;;8322455;28;20025;-58
2022/07/01 13:11:53;;;;;;;3.47;1.00;;;;;;;;;;8321444;28;20530;-59
2022/07/01 13:15:55;;;;;;;1.00;0.70;;;;;;;;;;8324368;28;20536;-58
2022/07/01 13:19:55;;;;;;;2.67;0.60;;;;;;;;;;8326365;28;20076;-58
2022/07/01 13:23:56;;;;;;;1.75;0.70;;;;;;;;;;8325820;28;22520;-59
2022/07/01 13:27:56;;;;;;;0.70;0.60;;;;;;;;;;8324233;28;20021;-60
2022/07/01 13:31:56;;;;;;;1.23;0.60;;;;;;;;;;8319471;28;20543;-59
2022/07/01 13:35:58;;;;;;;0.90;0.70;;;;;;;;;;8321061;28;20033;-60
2022/07/01 13:39:58;;;;;;;2.40;0.65;;;;;;;;;;8320331;28;20136;-59
2022/07/01 13:43:59;;;;;;;1.93;0.60;;;;;;;;;;8321692;28;20065;-58
2022/07/01 13:47:59;;;;;;;0.70;0.60;;;;;;;;;;8318648;28;20032;-60
2022/07/01 13:52:00;;;;;;;0.80;0.60;;;;;;;;;;8320750;28;20041;-60
2022/07/01 13:56:00;;;;;;;0.50;0.50;;;;;;;;;;8321906;28;20048;-60
2022/07/01 14:00:00;;;;;;;1.85;0.68;;;;;;;;;;8318734;28;20430;-60
2022/07/01 14:04:01;;;;;;;0.73;0.60;;;;;;;;;;8317942;28;20120;-59
2022/07/01 14:08:01;;;;;;;2.28;0.70;;;;;;;;;;8335636;28;20014;-59
2022/07/01 14:12:01;;;;;;;2.42;0.68;;;;;;;;;;8327503;28;20086;-60
2022/07/01 14:16:02;;;;;;;1.23;0.70;;;;;;;;;;8332796;28;20037;-60
2022/07/01 14:20:02;;;;;;;1.57;0.50;;;;;;;;;;8331023;28;20338;-59
2022/07/01 14:24:03;;;;;;;2.05;0.80;;;;;;;;;;8328332;28;20291;-60
2022/07/01 14:28:03;;;;;;;2.15;0.50;;;;;;;;;;8329689;28;20013;-60
2022/07/01 14:32:04;;;;;;;1.07;0.60;;;;;;;;;;8330155;28;20028;-60
2022/07/01 14:36:04;;;;;;;2.47;0.68;;;;;;;;;;8327993;28;20403;-59
2022/07/01 14:40:05;;;;;;;1.55;0.60;;;;;;;;;;8330086;28;20131;-60
2022/07/01 14:44:06;;;;;;;0.70;0.70;;;;;;;;;;8330756;28;20024;-60
2022/07/01 14:48:07;;;;;;;0.67;0.50;;;;;;;;;;8328558;28;20240;-60
2022/07/01 14:52:07;;;;;;;1.02;0.70;;;;;;;;;;8330336;28;20108;-59
2022/07/01 14:56:08;;;;;;;1.73;0.60;;;;;;;;;;8332202;28;21057;-60
2022/07/01 15:00:08;;;;;;;2.00;0.50;;;;;;;;;;8328901;28;20274;-60
2022/07/01 15:04:08;;;;;;;2.95;0.70;;;;;;;;;;8326322;28;20024;-60
2022/07/01 15:08:09;;;;;;;0.55;0.50;;;;;;;;;;8332055;28;20875;-60
2022/07/01 15:12:09;;;;;;;1.23;0.70;;;;;;;;;;8328684;28;20021;-59
2022/07/01 15:16:09;;;;;;;0.73;0.60;;;;;;;;;;8331320;28;20040;-59
2022/07/01 15:20:10;;;;;;;1.85;0.60;;;;;;;;;;8328537;28;20024;-60
2022/07/01 15:24:10;;;;;;;2.35;0.70;;;;;;;;;;8328721;28;20024;-60
2022/07/01 15:28:11;;;;;;;1.35;0.50;;;;;;;;;;8326274;28;20023;-60
2022/07/01 15:32:11;;;;;;;2.47;0.70;;;;;;;;;;8320744;28;20239;-61
2022/07/01 15:36:11;;;;;;;2.33;0.60;;;;;;;;;;8327799;28;20024;-60
2022/07/01 15:40:11;;;;;;;2.53;0.53;;;;;;;;;;8325847;28;20857;-59
2022/07/01 15:44:12;;;;;;;2.70;0.68;;;;;;;;;;8320295;28;20295;-59
2022/07/01 15:48:13;;;;;;;1.25;0.63;;;;;;;;;;8316472;28;20033;-61
2022/07/01 15:52:13;;;;;;;0.60;0.60;;;;;;;;;;8319283;28;20021;-59
2022/07/01 15:56:13;;;;;;;1.67;0.60;;;;;;;;;;8318407;28;20321;-59
2022/07/01 16:00:13;;;;;;;3.43;0.50;;;;;;;;;;8320058;28;20021;-59
2022/07/01 16:04:13;;;;;;;1.13;0.60;;;;;;;;;;8318260;28;20518;-58
2022/07/01 16:08:19;;;;;;;2.47;0.77;;;;;;;;;;8321986;28;20406;-59
2022/07/01 16:12:19;;;;;;;1.25;0.60;;;;;;;;;;8317665;28;20511;-58
2022/07/01 16:16:28;;;;;;;1.95;0.65;;;;;;;;;;8319818;28;20120;-58
2022/07/01 16:20:29;;;;;;;0.77;0.63;;;;;;;;;;8326135;28;20140;-58
2022/07/01 16:24:30;;;;;;;3.47;0.70;;;;;;;;;;8326170;28;20059;-58
2022/07/01 16:28:31;;;;;;;2.03;0.77;;;;;;;;;;8322408;28;20089;-58
2022/07/01 16:32:31;;;;;;;5.78;1.00;;;;;;;;;;8323700;28;20124;-58
2022/07/01 16:36:33;;;;;;;2.22;0.82;;;;;;;;;;8323098;28;20067;-58
2022/07/01 16:40:36;;;;;;;0.85;0.80;;;;;;;;;;8323619;28;20045;-59
2022/07/01 16:44:39;;;;;;;2.15;1.20;;;;;;;;;;8323295;28;20040;-58
2022/07/01 16:48:39;;;;;;;;;;;;;;;;;;8322701;28;20525;-58
2022/07/01 16:52:42;;;;;;;3.03;1.88;;;;;;;;;;8326041;28;19916;-58
2022/07/01 16:56:43;;;;;;;2.22;1.60;;;;;;;;;;8322940;28;20540;-58
2022/07/01 17:00:44;;;;;;;3.70;0.70;;;;;;;;;;8323174;28;20608;-58
2022/07/01 17:04:45;;;;;;;0.80;0.70;;;;;;;;;;8322704;28;20654;-60
2022/07/01 17:08:46;;;;;;;1.42;0.90;;;;;;;;;;8321545;28;20678;-59
2022/07/01 17:12:46;;;;;;;1.10;0.80;;;;;;;;;;8325079;28;20945;-59
2022/07/01 17:16:47;;;;;;;0.60;0.60;;;;;;;;;;8321651;28;20111;-59
2022/07/01 17:20:49;;;;;;;1.88;0.60;;;;;;;;;;8324390;28;20070;-58
2022/07/01 17:24:52;;;;;;;1.38;0.70;;;;;;;;;;8319622;28;20025;-59
2022/07/01 17:28:58;;;;;;;2.05;0.65;;;;;;;;;;8320145;28;20132;-58
2022/07/01 17:32:58;;;;;;;0.68;0.60;;;;;;;;;;8312964;28;20040;-58
2022/07/01 17:36:59;;;;;;;2.13;0.60;;;;;;;;;;8319692;28;20847;-59
2022/07/01 17:41:01;;;;;;;1.60;0.70;;;;;;;;;;8325175;28;20041;-59
2022/07/01 17:45:02;;;;;;;1.27;0.70;;;;;;;;;;8328687;28;20021;-60
2022/07/01 17:49:03;;;;;;;1.13;0.50;;;;;;;;;;8326238;28;20924;-59
2022/07/01 17:53:04;;;;;;;1.10;0.70;;;;;;;;;;8323095;28;20059;-59
2022/07/01 17:57:05;;;;;;;1.13;0.60;;;;;;;;;;8326530;28;20439;-59
2022/07/01 18:01:06;;;;;;;1.73;0.60;;;;;;;;;;8324596;28;20585;-58
2022/07/01 18:05:07;;;;;;;0.68;0.40;;;;;;;;;;8324326;28;20395;-58
2022/07/01 18:09:08;;;;;;;1.50;0.60;;;;;;;;;;8324715;28;20021;-59
2022/07/01 18:13:10;;;;;;;1.52;0.50;;;;;;;;;;8325311;28;20021;-59
2022/07/01 18:17:22;;;;;;;0.68;0.50;;;;;;;;;;8326902;28;20029;-60
2022/07/01 18:21:23;;;;;;;1.33;0.60;;;;;;;;;;8326260;28;20503;-60
2022/07/01 18:25:26;;;;;;;2.13;0.60;;;;;;;;;;8325085;28;20025;-60
2022/07/01 18:29:27;;;;;;;1.58;0.60;;;;;;;;;;8328144;28;20355;-59
2022/07/01 18:33:29;;;;;;;1.38;0.65;;;;;;;;;;8321840;28;20033;-59
2022/07/01 18:37:55;;;;;;;1.50;0.60;;;;;;;;;;8325804;28;20035;-59
2022/07/01 18:41:55;;;;;;;1.65;0.50;;;;;;;;;;8327551;28;20064;-58
2022/07/01 18:45:56;;;;;;;0.50;0.50;;;;;;;;;;8324431;28;20044;-59
2022/07/01 18:49:56;;;;;;;1.88;0.70;;;;;;;;;;8325947;28;20040;-59
2022/07/01 18:53:57;;;;;;;0.50;0.50;;;;;;;;;;8318308;28;21207;-58
2022/07/01 18:57:57;;;;;;;2.35;0.68;;;;;;;;;;8318886;28;20037;-59
2022/07/01 19:01:57;;;;;;;1.60;0.50;;;;;;;;;;8315179;28;20883;-59
2022/07/01 19:05:58;;;;;;;1.15;0.52;;;;;;;;;;8320189;28;20489;-58
2022/07/01 19:09:58;;;;;;;3.40;0.60;;;;;;;;;;8319399;28;20598;-58
2022/07/01 19:13:58;;;;;;;1.42;0.60;;;;;;;;;;8320383;28;20547;-59
2022/07/01 19:18:01;;;;;;;1.77;0.60;;;;;;;;;;8319774;28;20037;-59
2022/07/01 19:22:01;;;;;;;0.75;0.63;;;;;;;;;;8317479;28;20465;-58
2022/07/01 19:26:03;;;;;;;0.53;0.50;;;;;;;;;;8318020;28;20418;-59
2022/07/01 19:30:04;;;;;;;4.13;0.52;;;;;;;;;;8317163;28;20029;-59
2022/07/01 19:34:04;;;;;;;1.25;0.60;;;;;;;;;;8317052;28;20418;-59
2022/07/01 19:38:04;;;;;;;1.35;0.52;;;;;;;;;;8317984;28;20051;-59
2022/07/01 19:42:04;;;;;;;1.60;0.60;;;;;;;;;;8315609;28;20021;-58
2022/07/01 19:46:05;;;;;;;0.60;0.60;;;;;;;;;;8315997;28;21156;-59
2022/07/01 19:50:05;;;;;;;1.33;0.60;;;;;;;;;;8315469;28;20583;-58
2022/07/01 19:54:05;;;;;;;0.52;0.50;;;;;;;;;;8316284;28;20067;-58
2022/07/01 19:58:06;;;;;;;1.02;0.70;;;;;;;;;;8317743;28;20550;-59
2022/07/01 20:02:07;;;;;;;1.07;0.70;;;;;;;;;;8314961;28;20061;-58
2022/07/01 20:06:07;;;;;;;0.95;0.70;;;;;;;;;;8313083;28;20281;-58
2022/07/01 20:10:07;;;;;;;0.50;0.50;;;;;;;;;;8314880;28;20033;-63
2022/07/01 20:14:07;;;;;;;3.10;0.70;;;;;;;;;;8315349;28;20115;-59
2022/07/01 20:18:08;;;;;;;0.60;0.60;;;;;;;;;;8316879;28;20286;-58
2022/07/01 20:22:09;;;;;;;0.52;0.52;;;;;;;;;;8314664;28;20617;-58
2022/07/01 20:26:09;;;;;;;0.50;0.50;;;;;;;;;;8312505;28;20534;-59
2022/07/01 20:30:09;;;;;;;3.33;0.70;;;;;;;;;;8310944;28;20368;-58
2022/07/01 20:34:10;;;;;;;0.70;0.70;;;;;;;;;;8317941;28;20044;-58
2022/07/01 20:38:10;;;;;;;1.57;0.70;;;;;;;;;;8318488;28;20031;-59
2022/07/01 20:42:10;;;;;;;3.88;0.80;;;;;;;;;;8319509;28;20032;-58
2022/07/01 20:46:10;;;;;;;0.60;0.60;;;;;;;;;;8318789;28;20037;-58
2022/07/01 20:50:11;;;;;;;2.38;0.88;;;;;;;;;;8314095;28;20020;-59
2022/07/01 20:54:12;;;;;;;1.15;0.70;;;;;;;;;;8314883;28;20599;-58
2022/07/01 20:58:12;;;;;;;2.85;0.70;;;;;;;;;;8317770;28;20144;-58
2022/07/01 21:02:13;;;;;;;1.75;0.60;;;;;;;;;;8320675;28;20033;-58
2022/07/01 21:06:13;;;;;;;1.40;0.60;;;;;;;;;;8321168;28;20076;-58
2022/07/01 21:10:13;;;;;;;1.67;0.63;;;;;;;;;;8315618;28;20089;-58
2022/07/01 21:14:13;;;;;;;1.37;0.67;;;;;;;;;;8315267;28;20117;-58
2022/07/01 21:18:13;;;;;;;2.45;0.70;;;;;;;;;;8315772;28;20033;-58
2022/07/01 21:22:14;;;;;;;1.67;0.68;;;;;;;;;;8316112;28;20108;-58
2022/07/01 21:26:14;;;;;;;2.13;0.77;;;;;;;;;;8315056;28;20048;-58
2022/07/01 21:30:16;;;;;;;3.08;0.68;;;;;;;;;;8316690;28;20088;-59
2022/07/01 21:34:16;;;;;;;2.17;0.57;;;;;;;;;;8316867;28;20032;-58
2022/07/01 21:38:16;;;;;;;0.93;0.68;;;;;;;;;;8317658;28;20292;-58
2022/07/01 21:42:17;;;;;;;1.05;0.63;;;;;;;;;;8313638;28;20021;-59
2022/07/01 21:46:18;;;;;;;1.42;0.70;;;;;;;;;;8315259;28;20052;-59
2022/07/01 21:50:21;;;;;;;1.50;0.73;;;;;;;;;;8319270;28;20043;-58
2022/07/01 21:54:27;;;;;;;2.77;0.63;;;;;;;;;;8315038;28;20454;-58
2022/07/01 21:58:27;;;;;;;0.60;0.60;;;;;;;;;;8316538;28;20022;-59
2022/07/01 22:02:28;;;;;;;1.38;0.68;;;;;;;;;;8315845;28;20959;-60
2022/07/01 22:10:47;;;;;;;0.95;0.50;;;;;;;;;;8317297;28;20461;-59
2022/07/01 22:14:52;;;;;;;2.40;0.57;;;;;;;;;;8318345;28;20687;-58
2022/07/01 22:18:53;;;;;;;0.65;0.50;;;;;;;;;;8315466;28;20049;-58
2022/07/01 22:22:54;;;;;;;3.28;0.70;;;;;;;;;;8315046;28;20864;-58
2022/07/01 22:26:55;;;;;;;0.80;0.60;;;;;;;;;;8322351;28;20079;-59
2022/07/01 22:30:56;;;;;;;3.42;0.75;;;;;;;;;;8324788;28;20036;-59
2022/07/01 22:34:56;;;;;;;2.25;0.70;;;;;;;;;;8327433;28;20795;-58
2022/07/01 22:38:58;;;;;;;0.63;0.52;;;;;;;;;;8328119;28;20903;-59
2022/07/01 22:42:59;;;;;;;1.40;0.70;;;;;;;;;;8326383;28;20987;-59
2022/07/01 22:46:59;;;;;;;2.85;0.50;;;;;;;;;;8329457;28;20090;-59
2022/07/01 22:51:02;;;;;;;2.55;0.63;;;;;;;;;;8326846;28;20485;-58
2022/07/01 22:55:10;;;;;;;0.65;0.60;;;;;;;;;;8327464;28;20016;-59
2022/07/01 22:59:13;;;;;;;0.52;0.52;;;;;;;;;;8329038;28;20051;-58
2022/07/01 23:03:15;;;;;;;0.63;0.63;;;;;;;;;;8326174;28;20033;-58
2022/07/01 23:07:16;;;;;;;1.58;0.70;;;;;;;;;;8330209;28;20025;-60
2022/07/01 23:11:17;;;;;;;0.67;0.50;;;;;;;;;;8327442;28;20148;-58
2022/07/01 23:19:40;;;;;;;0.40;0.40;;;;;;;;;;8332403;28;20144;-59
2022/07/01 23:23:43;;;;;;;1.38;0.47;;;;;;;;;;8328669;28;20033;-59
2022/07/01 23:27:43;;;;;;;1.10;0.52;;;;;;;;;;8328186;28;20160;-58
2022/07/01 23:31:44;;;;;;;1.35;0.60;;;;;;;;;;8322521;28;20106;-59
2022/07/01 23:35:45;;;;;;;3.65;0.73;;;;;;;;;;8325134;28;20435;-58
2022/07/01 23:39:46;;;;;;;0.65;0.40;;;;;;;;;;8326599;28;20021;-58
2022/07/01 23:43:48;;;;;;;0.65;0.57;;;;;;;;;;8326072;28;20032;-58
2022/07/01 23:47:48;;;;;;;1.27;0.52;;;;;;;;;;8324118;28;20149;-58
2022/07/01 23:51:48;;;;;;;1.88;0.60;;;;;;;;;;8327878;28;20021;-57
2022/07/01 23:55:49;;;;;;;1.88;0.77;;;;;;;;;;8323535;28;20032;-58
2022/07/01 23:59:49;;;;;;;2.20;0.57;;;;;;;;;;8326179;28;20739;-58
